Time;durP1;ratioP1;P1;durP2;ratioP2;P2;SDS_P1;SDS_P2;PMS_P1;PMS_P2;Temp;Humidity;BMP_temperature;BMP_pressure;BME280_temperature;BME280_humidity;BME280_pressure;Samples;Min_cycle;Max_cycle;Signal;HPM_P1;HPM_P2
2021/05/12 00:00:39;;;;;;;1.43;0.80;;;;;;;;;;5018739;28;20451;-67
2021/05/12 00:03:05;;;;;;;1.50;1.00;;;;;;;;;;5014058;28;20407;-66
2021/05/12 00:05:31;;;;;;;1.60;0.90;;;;;;;;;;5022276;28;20875;-66
2021/05/12 00:07:57;;;;;;;1.43;0.80;;;;;;;;;;5033768;28;20501;-66
2021/05/12 00:10:23;;;;;;;1.50;0.90;;;;;;;;;;5031582;28;20469;-66
2021/05/12 00:12:50;;;;;;;3.10;1.00;;;;;;;;;;5033472;28;20484;-66
2021/05/12 00:15:18;;;;;;;2.33;0.73;;;;;;;;;;5021811;28;20924;-66
2021/05/12 00:17:47;;;;;;;1.30;0.70;;;;;;;;;;5013776;28;20408;-66
2021/05/12 00:20:16;;;;;;;2.50;0.90;;;;;;;;;;5023589;28;20431;-66
2021/05/12 00:25:15;;;;;;;1.50;0.80;;;;;;;;;;5015119;28;20463;-66
2021/05/12 00:27:41;;;;;;;1.80;0.90;;;;;;;;;;5013383;28;20435;-66
2021/05/12 00:30:10;;;;;;;1.70;0.90;;;;;;;;;;5021939;28;20426;-66
2021/05/12 00:32:36;;;;;;;5.10;0.93;;;;;;;;;;5033267;28;20493;-67
2021/05/12 00:35:03;;;;;;;2.00;1.10;;;;;;;;;;5032020;28;20431;-66
2021/05/12 00:37:29;;;;;;;1.40;0.90;;;;;;;;;;5032897;28;20410;-66
2021/05/12 00:39:55;;;;;;;1.43;0.87;;;;;;;;;;5025284;28;20447;-66
2021/05/12 00:42:21;;;;;;;1.87;0.90;;;;;;;;;;5032964;28;20427;-66
2021/05/12 00:44:47;;;;;;;1.57;0.87;;;;;;;;;;5031836;28;20497;-66
2021/05/12 00:47:13;;;;;;;1.40;0.87;;;;;;;;;;5032878;28;20768;-66
2021/05/12 00:49:39;;;;;;;1.30;0.80;;;;;;;;;;5028098;28;20792;-66
2021/05/12 00:52:05;;;;;;;1.60;1.07;;;;;;;;;;5013021;28;20423;-66
2021/05/12 00:54:32;;;;;;;1.40;0.80;;;;;;;;;;5016115;28;20430;-66
2021/05/12 00:56:58;;;;;;;1.80;0.90;;;;;;;;;;5030988;28;20406;-66
2021/05/12 00:59:31;;;;;;;1.57;0.93;;;;;;;;;;5030098;28;20419;-66
2021/05/12 01:01:58;;;;;;;1.67;1.00;;;;;;;;;;5032702;28;20508;-66
2021/05/12 01:04:24;;;;;;;1.30;0.70;;;;;;;;;;5031803;28;20454;-66
2021/05/12 01:06:50;;;;;;;1.30;0.70;;;;;;;;;;5032636;28;20422;-66
2021/05/12 01:09:16;;;;;;;1.40;0.90;;;;;;;;;;5031355;28;20457;-66
2021/05/12 01:11:42;;;;;;;1.50;0.80;;;;;;;;;;5032527;28;20442;-66
2021/05/12 01:14:08;;;;;;;1.70;0.87;;;;;;;;;;5032749;28;20434;-66
2021/05/12 01:16:34;;;;;;;1.40;0.70;;;;;;;;;;5031510;28;20433;-66
2021/05/12 01:19:00;;;;;;;1.30;0.80;;;;;;;;;;5032414;28;20415;-66
2021/05/12 01:21:27;;;;;;;1.67;0.87;;;;;;;;;;5013731;28;20446;-66
2021/05/12 01:23:53;;;;;;;1.70;0.83;;;;;;;;;;5011219;28;20435;-66
2021/05/12 01:26:23;;;;;;;4.83;0.90;;;;;;;;;;5028763;28;20431;-66
2021/05/12 01:28:51;;;;;;;1.50;0.80;;;;;;;;;;5032440;28;20403;-66
2021/05/12 01:31:17;;;;;;;1.40;0.70;;;;;;;;;;5031449;28;20446;-66
2021/05/12 01:33:44;;;;;;;2.03;0.80;;;;;;;;;;5032571;28;20406;-65
2021/05/12 01:36:10;;;;;;;1.50;0.80;;;;;;;;;;5017277;28;20470;-65
2021/05/12 01:38:37;;;;;;;1.70;0.70;;;;;;;;;;5012994;28;20850;-65
2021/05/12 01:41:04;;;;;;;1.57;0.83;;;;;;;;;;5012205;28;20451;-65
2021/05/12 01:43:31;;;;;;;1.90;0.77;;;;;;;;;;5012540;28;20406;-65
2021/05/12 01:45:57;;;;;;;1.40;0.73;;;;;;;;;;5021370;28;20462;-65
2021/05/12 01:48:23;;;;;;;1.30;0.70;;;;;;;;;;5032316;28;20414;-66
2021/05/12 01:50:49;;;;;;;1.30;0.73;;;;;;;;;;5030469;28;20521;-66
2021/05/12 01:53:16;;;;;;;2.33;0.93;;;;;;;;;;5032171;28;20457;-65
2021/05/12 01:55:42;;;;;;;1.80;0.97;;;;;;;;;;5031222;28;20430;-65
2021/05/12 01:58:08;;;;;;;1.40;0.80;;;;;;;;;;5032260;28;20935;-65
2021/05/12 02:00:35;;;;;;;2.10;0.93;;;;;;;;;;5031139;28;20493;-65
2021/05/12 02:03:04;;;;;;;2.23;0.97;;;;;;;;;;5020024;28;20479;-66
2021/05/12 02:05:31;;;;;;;1.23;0.70;;;;;;;;;;5012286;28;20475;-65
2021/05/12 02:07:59;;;;;;;1.50;0.80;;;;;;;;;;5012657;28;20452;-65
2021/05/12 02:10:26;;;;;;;1.40;0.80;;;;;;;;;;5015893;28;20485;-65
2021/05/12 02:12:52;;;;;;;2.80;1.00;;;;;;;;;;5034388;28;20399;-65
2021/05/12 02:15:19;;;;;;;1.40;0.80;;;;;;;;;;5034637;28;20406;-65
2021/05/12 02:17:45;;;;;;;1.40;0.80;;;;;;;;;;5033371;28;20431;-65
2021/05/12 02:20:12;;;;;;;1.70;0.90;;;;;;;;;;5034693;28;20490;-66
2021/05/12 02:22:38;;;;;;;1.50;0.70;;;;;;;;;;5015800;28;20489;-65
2021/05/12 02:25:06;;;;;;;1.30;0.70;;;;;;;;;;5015620;28;20503;-65
2021/05/12 02:27:32;;;;;;;2.00;1.07;;;;;;;;;;5034452;28;20438;-66
2021/05/12 02:30:01;;;;;;;1.30;0.70;;;;;;;;;;5036013;28;20410;-66
2021/05/12 02:32:28;;;;;;;1.30;0.70;;;;;;;;;;5034570;28;20414;-66
2021/05/12 02:34:54;;;;;;;1.87;0.90;;;;;;;;;;5035756;28;20410;-66
2021/05/12 02:37:20;;;;;;;1.43;0.90;;;;;;;;;;5016335;28;20423;-66
2021/05/12 02:39:46;;;;;;;1.77;0.80;;;;;;;;;;5016243;28;20400;-65
2021/05/12 02:42:13;;;;;;;1.47;0.80;;;;;;;;;;5031129;28;20853;-65
2021/05/12 02:44:39;;;;;;;1.40;0.70;;;;;;;;;;5035195;28;20447;-65
2021/05/12 02:47:05;;;;;;;1.37;0.60;;;;;;;;;;5019957;28;20485;-65
2021/05/12 02:49:31;;;;;;;1.50;0.90;;;;;;;;;;5015143;28;20506;-66
2021/05/12 02:51:57;;;;;;;1.20;0.70;;;;;;;;;;5033929;28;20529;-66
2021/05/12 02:54:23;;;;;;;2.20;0.83;;;;;;;;;;5035416;28;20399;-66
2021/05/12 02:56:49;;;;;;;1.30;0.77;;;;;;;;;;5034070;28;20442;-66
2021/05/12 02:59:15;;;;;;;1.50;0.73;;;;;;;;;;5034593;28;20393;-66
2021/05/12 03:01:41;;;;;;;1.40;0.77;;;;;;;;;;5032165;28;20566;-66
2021/05/12 03:04:07;;;;;;;1.40;0.70;;;;;;;;;;5034539;28;20457;-66
2021/05/12 03:06:34;;;;;;;1.30;0.70;;;;;;;;;;5033718;28;20421;-66
2021/05/12 03:09:00;;;;;;;1.30;0.80;;;;;;;;;;5035044;28;20395;-65
2021/05/12 03:11:26;;;;;;;1.30;0.77;;;;;;;;;;5033511;28;20500;-66
2021/05/12 03:13:52;;;;;;;1.70;1.00;;;;;;;;;;5035166;28;20391;-65
2021/05/12 03:16:18;;;;;;;1.43;0.80;;;;;;;;;;5033065;28;20446;-65
2021/05/12 03:18:44;;;;;;;1.30;0.70;;;;;;;;;;5035229;28;20402;-66
2021/05/12 03:21:10;;;;;;;2.27;0.70;;;;;;;;;;5027862;28;21003;-66
2021/05/12 03:23:36;;;;;;;1.27;0.70;;;;;;;;;;5023487;28;20438;-67
2021/05/12 03:26:02;;;;;;;1.50;0.80;;;;;;;;;;5029651;28;20452;-66
2021/05/12 03:28:28;;;;;;;2.27;0.70;;;;;;;;;;5015005;28;20404;-65
2021/05/12 03:30:54;;;;;;;1.30;0.80;;;;;;;;;;5017548;28;20434;-65
2021/05/12 03:33:20;;;;;;;1.40;0.80;;;;;;;;;;5034420;28;20391;-65
2021/05/12 03:35:46;;;;;;;1.30;0.70;;;;;;;;;;5031542;28;20481;-65
2021/05/12 03:38:13;;;;;;;1.30;0.83;;;;;;;;;;5013321;28;20469;-66
2021/05/12 03:40:39;;;;;;;1.40;0.70;;;;;;;;;;5014827;28;20419;-67
2021/05/12 03:43:05;;;;;;;1.63;0.80;;;;;;;;;;5034189;28;20788;-66
2021/05/12 03:45:32;;;;;;;1.90;0.90;;;;;;;;;;5034059;28;20552;-67
2021/05/12 03:47:58;;;;;;;1.30;0.80;;;;;;;;;;5014731;28;20555;-67
2021/05/12 03:50:25;;;;;;;1.70;1.00;;;;;;;;;;5014564;28;20426;-67
2021/05/12 03:52:51;;;;;;;1.37;0.80;;;;;;;;;;5014226;28;20948;-67
2021/05/12 03:55:18;;;;;;;1.60;0.90;;;;;;;;;;5014334;28;20399;-66
2021/05/12 03:57:44;;;;;;;1.30;0.70;;;;;;;;;;5029666;28;20506;-67
2021/05/12 04:00:11;;;;;;;1.50;0.90;;;;;;;;;;5034436;28;20434;-66
2021/05/12 04:02:37;;;;;;;1.23;0.60;;;;;;;;;;5033028;28;20429;-67
2021/05/12 04:05:03;;;;;;;1.83;0.93;;;;;;;;;;5033773;28;20956;-66
2021/05/12 04:07:29;;;;;;;1.40;0.70;;;;;;;;;;5033039;28;20430;-67
2021/05/12 04:09:56;;;;;;;1.63;0.83;;;;;;;;;;5031921;28;20465;-67
2021/05/12 04:12:22;;;;;;;1.40;0.87;;;;;;;;;;5032815;28;20419;-67
2021/05/12 04:14:49;;;;;;;1.53;0.73;;;;;;;;;;5033774;28;20395;-66
2021/05/12 04:17:15;;;;;;;1.40;0.80;;;;;;;;;;5026999;28;20497;-66
2021/05/12 04:19:41;;;;;;;1.83;0.90;;;;;;;;;;5013804;28;20844;-66
2021/05/12 04:22:07;;;;;;;2.37;0.83;;;;;;;;;;5024583;28;20508;-66
2021/05/12 04:24:34;;;;;;;2.20;0.73;;;;;;;;;;5033705;28;20627;-66
2021/05/12 04:27:00;;;;;;;1.30;0.80;;;;;;;;;;5023151;28;20447;-66
2021/05/12 04:29:26;;;;;;;3.83;0.90;;;;;;;;;;5027935;28;20505;-66
2021/05/12 04:31:52;;;;;;;1.60;0.80;;;;;;;;;;5033364;28;20423;-67
2021/05/12 04:34:18;;;;;;;1.50;1.00;;;;;;;;;;5032053;28;20767;-66
2021/05/12 04:36:44;;;;;;;1.40;0.87;;;;;;;;;;5033339;28;20442;-66
2021/05/12 04:39:10;;;;;;;1.60;1.00;;;;;;;;;;5032378;28;20519;-66
2021/05/12 04:41:36;;;;;;;2.70;0.90;;;;;;;;;;5033124;28;20427;-66
2021/05/12 04:44:04;;;;;;;3.53;2.80;;;;;;;;;;5032329;28;20423;-66
2021/05/12 04:46:30;;;;;;;2.17;1.00;;;;;;;;;;5033366;28;20468;-66
2021/05/12 04:48:56;;;;;;;2.33;1.20;;;;;;;;;;5032031;28;20450;-66
2021/05/12 04:51:22;;;;;;;1.53;1.10;;;;;;;;;;5031934;28;20439;-66
2021/05/12 04:53:48;;;;;;;4.40;1.13;;;;;;;;;;5031842;28;20514;-66
2021/05/12 04:56:15;;;;;;;1.90;1.10;;;;;;;;;;5033063;28;20406;-66
2021/05/12 04:58:41;;;;;;;1.50;0.80;;;;;;;;;;5031841;28;20943;-66
2021/05/12 05:01:07;;;;;;;1.40;0.80;;;;;;;;;;5031653;28;20415;-66
2021/05/12 05:03:40;;;;;;;1.60;0.90;;;;;;;;;;5023836;28;20458;-66
2021/05/12 05:06:06;;;;;;;3.10;1.10;;;;;;;;;;5014139;28;20459;-66
2021/05/12 05:08:32;;;;;;;1.50;0.80;;;;;;;;;;5021926;28;20423;-66
2021/05/12 05:10:58;;;;;;;1.63;0.97;;;;;;;;;;5033338;28;20896;-66
2021/05/12 05:13:24;;;;;;;1.40;0.90;;;;;;;;;;5031840;28;20938;-66
2021/05/12 05:15:50;;;;;;;1.40;0.90;;;;;;;;;;5032920;28;20410;-66
2021/05/12 05:18:16;;;;;;;2.27;1.00;;;;;;;;;;5030603;28;20423;-66
2021/05/12 05:20:42;;;;;;;1.50;0.97;;;;;;;;;;5032480;28;20434;-66
2021/05/12 05:23:08;;;;;;;1.40;0.90;;;;;;;;;;5027340;28;20435;-67
2021/05/12 05:25:34;;;;;;;1.40;0.90;;;;;;;;;;5018736;28;20821;-66
2021/05/12 05:28:01;;;;;;;1.43;0.80;;;;;;;;;;5031197;28;20517;-66
2021/05/12 05:30:27;;;;;;;2.00;0.90;;;;;;;;;;5032436;28;20778;-66
2021/05/12 05:32:59;;;;;;;1.30;0.70;;;;;;;;;;5029622;28;20391;-66
2021/05/12 05:35:26;;;;;;;2.30;1.00;;;;;;;;;;5012737;28;20415;-66
2021/05/12 05:37:52;;;;;;;1.87;1.00;;;;;;;;;;5013685;28;20396;-66
2021/05/12 05:40:18;;;;;;;1.80;1.10;;;;;;;;;;5032456;28;20927;-66
2021/05/12 05:42:44;;;;;;;9.13;1.60;;;;;;;;;;5031526;28;20403;-67
2021/05/12 05:45:10;;;;;;;1.30;0.80;;;;;;;;;;5035122;28;20466;-66
2021/05/12 05:47:37;;;;;;;2.07;0.87;;;;;;;;;;5036063;28;20398;-66
2021/05/12 05:50:04;;;;;;;1.43;0.93;;;;;;;;;;5035275;28;20422;-66
2021/05/12 05:52:30;;;;;;;4.13;0.90;;;;;;;;;;5036389;28;20406;-66
2021/05/12 05:54:56;;;;;;;1.43;0.80;;;;;;;;;;5035286;28;20422;-66
2021/05/12 05:57:22;;;;;;;1.50;0.83;;;;;;;;;;5036261;28;20502;-66
2021/05/12 05:59:48;;;;;;;1.97;1.07;;;;;;;;;;5034247;28;20506;-66
2021/05/12 06:02:14;;;;;;;1.30;0.80;;;;;;;;;;5036711;28;20441;-66
2021/05/12 06:04:40;;;;;;;1.50;0.90;;;;;;;;;;5035113;28;20454;-66
2021/05/12 06:07:07;;;;;;;1.30;0.70;;;;;;;;;;5036534;28;20403;-66
2021/05/12 06:09:34;;;;;;;1.40;0.70;;;;;;;;;;5034964;28;20419;-66
2021/05/12 06:12:00;;;;;;;1.57;0.87;;;;;;;;;;5036184;28;20414;-66
2021/05/12 06:14:26;;;;;;;2.80;0.90;;;;;;;;;;5035182;28;20481;-66
2021/05/12 06:16:52;;;;;;;1.60;0.90;;;;;;;;;;5034565;28;20410;-66
2021/05/12 06:19:18;;;;;;;1.40;1.00;;;;;;;;;;5033849;28;20418;-66
2021/05/12 06:21:44;;;;;;;1.70;0.90;;;;;;;;;;5036066;28;20541;-66
2021/05/12 06:24:11;;;;;;;2.57;0.80;;;;;;;;;;5024502;28;20936;-67
2021/05/12 06:26:39;;;;;;;2.20;1.10;;;;;;;;;;5014704;28;20418;-67
2021/05/12 06:29:05;;;;;;;2.70;1.10;;;;;;;;;;5015874;28;20416;-67
2021/05/12 06:31:31;;;;;;;4.17;1.10;;;;;;;;;;5015553;28;20456;-67
2021/05/12 06:33:59;;;;;;;2.13;0.97;;;;;;;;;;5026790;28;20453;-66
2021/05/12 06:36:25;;;;;;;1.80;1.00;;;;;;;;;;5035473;28;20453;-66
2021/05/12 06:38:51;;;;;;;1.40;0.70;;;;;;;;;;5034821;28;20418;-66
2021/05/12 06:41:17;;;;;;;1.30;0.70;;;;;;;;;;5035622;28;20427;-67
2021/05/12 06:43:43;;;;;;;1.90;1.00;;;;;;;;;;5028816;28;20430;-67
2021/05/12 06:46:09;;;;;;;1.70;1.10;;;;;;;;;;5015621;28;20501;-66
2021/05/12 06:48:35;;;;;;;2.13;1.10;;;;;;;;;;5019394;28;20429;-66
2021/05/12 06:51:02;;;;;;;1.80;0.97;;;;;;;;;;5035810;28;20965;-65
2021/05/12 06:53:32;;;;;;;2.53;0.90;;;;;;;;;;5031656;28;20430;-66
2021/05/12 06:55:58;;;;;;;1.73;0.93;;;;;;;;;;5014811;28;20417;-66
2021/05/12 06:58:25;;;;;;;1.80;1.20;;;;;;;;;;5030677;28;20919;-67
2021/05/12 07:00:51;;;;;;;1.87;1.00;;;;;;;;;;5033333;28;20438;-66
2021/05/12 07:03:19;;;;;;;1.57;0.90;;;;;;;;;;5028403;28;20427;-67
2021/05/12 07:05:45;;;;;;;1.50;0.90;;;;;;;;;;5031545;28;20534;-67
2021/05/12 07:08:11;;;;;;;1.97;1.30;;;;;;;;;;5026618;28;20423;-72
2021/05/12 07:10:38;;;;;;;1.57;1.10;;;;;;;;;;5029936;28;20457;-70
2021/05/12 07:13:04;;;;;;;1.77;1.20;;;;;;;;;;5030219;28;20498;-69
2021/05/12 07:15:30;;;;;;;1.70;1.30;;;;;;;;;;5023712;28;20435;-66
2021/05/12 07:17:56;;;;;;;2.60;1.70;;;;;;;;;;5029280;28;20425;-68
2021/05/12 07:20:22;;;;;;;2.27;1.70;;;;;;;;;;5029084;28;20450;-67
2021/05/12 07:22:48;;;;;;;2.97;1.63;;;;;;;;;;5033663;28;20422;-67
2021/05/12 07:25:15;;;;;;;5.13;1.43;;;;;;;;;;5029731;28;20467;-66
2021/05/12 07:27:41;;;;;;;6.93;2.23;;;;;;;;;;5029691;28;20468;-66
2021/05/12 07:30:07;;;;;;;1.80;1.37;;;;;;;;;;5031828;28;20453;-64
2021/05/12 07:32:33;;;;;;;2.20;1.77;;;;;;;;;;5022807;28;20426;-65
2021/05/12 07:35:00;;;;;;;2.73;2.00;;;;;;;;;;5024273;28;20430;-64
2021/05/12 07:37:26;;;;;;;5.80;2.03;;;;;;;;;;5031831;28;20439;-64
2021/05/12 07:39:53;;;;;;;1.80;1.30;;;;;;;;;;5027379;28;20431;-64
2021/05/12 07:42:19;;;;;;;3.30;1.43;;;;;;;;;;5029484;28;20442;-64
2021/05/12 07:44:48;;;;;;;2.27;1.70;;;;;;;;;;5023830;28;20459;-64
2021/05/12 07:47:14;;;;;;;1.90;1.37;;;;;;;;;;5017940;28;20427;-64
2021/05/12 07:49:40;;;;;;;2.27;1.53;;;;;;;;;;5020348;28;20822;-65
2021/05/12 07:52:13;;;;;;;3.10;1.33;;;;;;;;;;5019232;28;20442;-64
2021/05/12 07:54:39;;;;;;;2.13;1.37;;;;;;;;;;5022582;28;20435;-64
2021/05/12 07:57:05;;;;;;;1.77;1.30;;;;;;;;;;5024345;28;20469;-64
2021/05/12 07:59:31;;;;;;;1.70;1.40;;;;;;;;;;5025407;28;20986;-65
2021/05/12 08:02:01;;;;;;;2.00;1.50;;;;;;;;;;5022574;28;20434;-65
2021/05/12 08:04:27;;;;;;;1.97;1.73;;;;;;;;;;5026007;28;20473;-65
2021/05/12 08:06:53;;;;;;;2.17;1.73;;;;;;;;;;5020656;28;20453;-65
2021/05/12 08:09:19;;;;;;;2.00;1.60;;;;;;;;;;5025637;28;20427;-65
2021/05/12 08:11:45;;;;;;;1.70;1.30;;;;;;;;;;5024703;28;20439;-65
2021/05/12 08:14:11;;;;;;;3.17;1.30;;;;;;;;;;5021577;28;20517;-65
2021/05/12 08:16:37;;;;;;;2.90;1.90;;;;;;;;;;5022598;28;20422;-66
2021/05/12 08:19:03;;;;;;;2.27;1.80;;;;;;;;;;5025483;28;20419;-65
2021/05/12 08:21:29;;;;;;;2.07;1.63;;;;;;;;;;5030343;28;20466;-65
2021/05/12 08:23:55;;;;;;;2.07;1.50;;;;;;;;;;5022619;28;20440;-66
2021/05/12 08:26:22;;;;;;;2.97;2.07;;;;;;;;;;5024477;28;21239;-65
2021/05/12 08:28:49;;;;;;;2.10;1.50;;;;;;;;;;5022678;28;20944;-66
2021/05/12 08:31:17;;;;;;;2.60;2.03;;;;;;;;;;5025157;28;20486;-66
2021/05/12 08:33:44;;;;;;;2.60;1.80;;;;;;;;;;5030118;28;20406;-65
2021/05/12 08:36:10;;;;;;;2.67;1.80;;;;;;;;;;5032469;28;20520;-65
2021/05/12 08:38:37;;;;;;;2.30;1.43;;;;;;;;;;5026074;28;20776;-66
2021/05/12 08:41:03;;;;;;;3.20;1.50;;;;;;;;;;5030101;28;20441;-65
2021/05/12 08:43:30;;;;;;;1.83;1.40;;;;;;;;;;5031665;28;20430;-65
2021/05/12 08:45:56;;;;;;;3.93;1.90;;;;;;;;;;5029198;28;20493;-65
2021/05/12 08:48:23;;;;;;;3.13;2.10;;;;;;;;;;5029141;28;20419;-66
2021/05/12 08:50:50;;;;;;;3.23;2.37;;;;;;;;;;5027977;28;20443;-64
2021/05/12 08:53:17;;;;;;;3.37;2.20;;;;;;;;;;5031262;28;20438;-65
2021/05/12 08:55:43;;;;;;;3.10;2.40;;;;;;;;;;5029266;28;20468;-65
2021/05/12 08:58:09;;;;;;;2.97;1.97;;;;;;;;;;5029750;28;20509;-65
2021/05/12 09:00:35;;;;;;;2.80;2.10;;;;;;;;;;5026143;28;20490;-65
2021/05/12 09:03:02;;;;;;;2.83;1.87;;;;;;;;;;5029134;28;20430;-65
2021/05/12 09:05:29;;;;;;;2.93;2.20;;;;;;;;;;5031100;28;20470;-65
2021/05/12 09:07:57;;;;;;;2.40;1.13;;;;;;;;;;5023729;28;20506;-66
2021/05/12 09:10:23;;;;;;;1.33;0.87;;;;;;;;;;5031119;28;20537;-65
2021/05/12 09:12:56;;;;;;;1.50;0.90;;;;;;;;;;5026890;28;20956;-65
2021/05/12 09:15:23;;;;;;;2.10;1.20;;;;;;;;;;5026802;28;20427;-65
2021/05/12 09:17:51;;;;;;;1.70;1.00;;;;;;;;;;5030904;28;20920;-65
2021/05/12 09:20:19;;;;;;;1.40;1.03;;;;;;;;;;5031661;28;20438;-65
2021/05/12 09:22:49;;;;;;;1.40;0.80;;;;;;;;;;5034374;28;20426;-65
2021/05/12 09:25:18;;;;;;;3.27;1.20;;;;;;;;;;5028748;28;20462;-65
2021/05/12 09:27:51;;;;;;;1.90;1.10;;;;;;;;;;5034973;28;20413;-65
2021/05/12 09:30:24;;;;;;;2.10;1.13;;;;;;;;;;5033459;28;20448;-65
2021/05/12 09:32:50;;;;;;;2.07;0.90;;;;;;;;;;5030914;28;20433;-65
2021/05/12 09:35:17;;;;;;;1.40;0.83;;;;;;;;;;5028730;28;20442;-66
2021/05/12 09:37:43;;;;;;;1.70;0.90;;;;;;;;;;5027283;28;20960;-65
2021/05/12 09:40:11;;;;;;;2.00;1.27;;;;;;;;;;5029236;28;20506;-66
2021/05/12 09:42:38;;;;;;;1.40;0.83;;;;;;;;;;5031087;28;20421;-66
2021/05/12 09:45:16;;;;;;;3.83;0.93;;;;;;;;;;5024772;28;20820;-66
2021/05/12 09:47:43;;;;;;;2.37;1.50;;;;;;;;;;5021284;28;20433;-66
2021/05/12 09:50:14;;;;;;;2.00;1.03;;;;;;;;;;5031611;28;20908;-66
2021/05/12 09:52:40;;;;;;;1.60;1.10;;;;;;;;;;5034421;28;20502;-66
2021/05/12 09:55:07;;;;;;;3.17;1.90;;;;;;;;;;5033547;28;20422;-66
2021/05/12 09:57:33;;;;;;;1.70;1.00;;;;;;;;;;5033839;28;20506;-66
2021/05/12 09:59:59;;;;;;;1.50;0.80;;;;;;;;;;5032456;28;20431;-66
2021/05/12 10:02:25;;;;;;;1.63;0.80;;;;;;;;;;5030882;28;20832;-66
2021/05/12 10:04:59;;;;;;;4.50;1.20;;;;;;;;;;5031271;28;20466;-65
2021/05/12 10:07:26;;;;;;;1.60;1.00;;;;;;;;;;5033486;28;20441;-66
2021/05/12 10:09:53;;;;;;;1.80;1.00;;;;;;;;;;5032334;28;20421;-65
2021/05/12 10:12:31;;;;;;;1.60;0.80;;;;;;;;;;5030985;28;20434;-65
2021/05/12 10:14:58;;;;;;;2.07;1.10;;;;;;;;;;5032270;28;20454;-65
2021/05/12 10:17:25;;;;;;;2.20;1.37;;;;;;;;;;5033895;28;20422;-65
2021/05/12 10:19:51;;;;;;;1.60;1.00;;;;;;;;;;5030474;28;20744;-65
2021/05/12 10:22:18;;;;;;;1.93;1.00;;;;;;;;;;5034259;28;20457;-65
2021/05/12 10:24:46;;;;;;;1.37;0.83;;;;;;;;;;5031264;28;20466;-65
2021/05/12 10:27:15;;;;;;;1.93;1.20;;;;;;;;;;5027553;28;20418;-65
2021/05/12 10:29:51;;;;;;;1.50;0.90;;;;;;;;;;5027891;28;20472;-65
2021/05/12 10:32:36;;;;;;;1.87;1.20;;;;;;;;;;5027025;28;20782;-65
2021/05/12 10:35:02;;;;;;;1.80;1.00;;;;;;;;;;5020705;28;20427;-64
2021/05/12 10:37:29;;;;;;;3.07;1.10;;;;;;;;;;5025613;28;20444;-65
2021/05/12 10:40:00;;;;;;;2.33;1.43;;;;;;;;;;5023058;28;20783;-65
2021/05/12 10:42:53;;;;;;;1.50;0.90;;;;;;;;;;5025047;28;20434;-65
2021/05/12 10:45:21;;;;;;;1.70;1.00;;;;;;;;;;5025072;28;20577;-65
2021/05/12 10:47:48;;;;;;;2.80;1.30;;;;;;;;;;5024611;28;20407;-65
2021/05/12 10:50:14;;;;;;;1.53;1.10;;;;;;;;;;5030499;28;20726;-65
2021/05/12 10:53:00;;;;;;;1.87;1.00;;;;;;;;;;5033369;28;20468;-64
2021/05/12 10:55:46;;;;;;;3.30;1.63;;;;;;;;;;5024870;28;20994;-64
2021/05/12 10:58:15;;;;;;;1.57;1.00;;;;;;;;;;5025860;28;20416;-65
2021/05/12 11:01:01;;;;;;;2.80;1.27;;;;;;;;;;5024709;28;20465;-65
2021/05/12 11:03:46;;;;;;;1.50;0.90;;;;;;;;;;5024153;28;20523;-66
2021/05/12 11:06:12;;;;;;;2.13;1.00;;;;;;;;;;5023181;28;20505;-65
2021/05/12 11:08:59;;;;;;;2.00;1.23;;;;;;;;;;5023939;28;20419;-66
2021/05/12 11:11:25;;;;;;;1.83;1.13;;;;;;;;;;5024366;28;20789;-67
2021/05/12 11:13:59;;;;;;;1.93;1.30;;;;;;;;;;5025248;28;20923;-67
2021/05/12 11:16:25;;;;;;;1.40;0.80;;;;;;;;;;5028493;28;20427;-67
2021/05/12 11:18:52;;;;;;;1.67;1.00;;;;;;;;;;5023047;28;20438;-67
2021/05/12 11:24:18;;;;;;;1.97;1.00;;;;;;;;;;5019982;28;20457;-66
2021/05/12 11:26:53;;;;;;;1.87;1.23;;;;;;;;;;5027022;28;20435;-67
2021/05/12 11:31:57;;;;;;;3.10;1.20;;;;;;;;;;5032899;28;20485;-67
2021/05/12 11:34:23;;;;;;;1.70;1.23;;;;;;;;;;5031109;28;21010;-66
2021/05/12 11:36:50;;;;;;;3.70;1.00;;;;;;;;;;5027263;28;20413;-67
2021/05/12 11:39:16;;;;;;;1.80;1.10;;;;;;;;;;5024605;28;20490;-67
2021/05/12 11:41:42;;;;;;;1.53;0.90;;;;;;;;;;5026039;28;20594;-67
2021/05/12 11:44:08;;;;;;;5.83;1.20;;;;;;;;;;5028885;28;20418;-67
2021/05/12 11:46:37;;;;;;;2.23;1.40;;;;;;;;;;5030159;28;20816;-66
2021/05/12 11:49:14;;;;;;;2.43;1.30;;;;;;;;;;5027974;28;20426;-66
2021/05/12 11:51:48;;;;;;;1.53;1.00;;;;;;;;;;5026761;28;20486;-66
2021/05/12 11:54:16;;;;;;;4.53;1.50;;;;;;;;;;5032689;28;20407;-67
2021/05/12 11:56:44;;;;;;;1.40;0.87;;;;;;;;;;5028006;28;20443;-67
2021/05/12 11:59:13;;;;;;;2.00;1.27;;;;;;;;;;5030493;28;20498;-66
2021/05/12 12:01:48;;;;;;;1.70;1.10;;;;;;;;;;5032330;28;20480;-66
2021/05/12 12:04:28;;;;;;;1.70;1.10;;;;;;;;;;5032727;28;20415;-66
2021/05/12 12:06:54;;;;;;;1.90;1.33;;;;;;;;;;5031599;28;20430;-67
2021/05/12 12:09:21;;;;;;;1.80;1.30;;;;;;;;;;5031961;28;20430;-66
2021/05/12 12:11:48;;;;;;;2.17;1.43;;;;;;;;;;5031080;28;21217;-67
2021/05/12 12:14:14;;;;;;;2.10;1.50;;;;;;;;;;5032160;28;20803;-66
2021/05/12 12:16:41;;;;;;;1.60;1.00;;;;;;;;;;5031677;28;20430;-66
2021/05/12 12:19:11;;;;;;;1.80;1.03;;;;;;;;;;5030754;28;20872;-66
2021/05/12 12:21:37;;;;;;;1.60;0.90;;;;;;;;;;5029358;28;20455;-66
2021/05/12 12:24:12;;;;;;;1.70;1.00;;;;;;;;;;5031764;28;20438;-66
2021/05/12 12:26:41;;;;;;;1.80;1.10;;;;;;;;;;5026190;28;20493;-67
2021/05/12 12:29:07;;;;;;;2.50;1.10;;;;;;;;;;5029291;28;20786;-66
2021/05/12 12:31:43;;;;;;;1.90;1.47;;;;;;;;;;5030402;28;20453;-66
2021/05/12 12:34:18;;;;;;;2.20;1.40;;;;;;;;;;5029172;28;20486;-66
2021/05/12 12:37:10;;;;;;;1.83;1.13;;;;;;;;;;5030400;28;20422;-66
2021/05/12 12:39:39;;;;;;;2.27;1.40;;;;;;;;;;5029607;28;20422;-66
2021/05/12 12:42:06;;;;;;;1.77;1.20;;;;;;;;;;5027313;28;20447;-65
2021/05/12 12:44:35;;;;;;;2.00;1.30;;;;;;;;;;5030274;28;20465;-66
2021/05/12 12:47:01;;;;;;;2.10;1.30;;;;;;;;;;5029585;28;20489;-66
2021/05/12 12:49:35;;;;;;;1.80;1.47;;;;;;;;;;5031147;28;20526;-65
2021/05/12 12:52:08;;;;;;;2.30;1.70;;;;;;;;;;5028686;28;20469;-65
2021/05/12 12:54:50;;;;;;;2.30;1.60;;;;;;;;;;5029892;28;20482;-66
2021/05/12 12:57:17;;;;;;;1.80;1.20;;;;;;;;;;5029257;28;20433;-65
2021/05/12 13:00:01;;;;;;;2.03;1.40;;;;;;;;;;5030954;28;20430;-66
2021/05/12 13:02:27;;;;;;;1.90;1.50;;;;;;;;;;5027191;28;20435;-65
2021/05/12 13:05:16;;;;;;;2.20;1.53;;;;;;;;;;5030783;28;20970;-66
2021/05/12 13:07:42;;;;;;;3.17;1.50;;;;;;;;;;5031045;28;20418;-66
2021/05/12 13:10:27;;;;;;;2.50;1.80;;;;;;;;;;5023984;28;20442;-66
2021/05/12 13:12:54;;;;;;;2.73;2.23;;;;;;;;;;5025738;28;20434;-65
2021/05/12 13:15:26;;;;;;;2.20;1.90;;;;;;;;;;5019249;28;20431;-66
2021/05/12 13:17:56;;;;;;;2.90;1.87;;;;;;;;;;5023215;28;20431;-66
2021/05/12 13:20:23;;;;;;;5.07;1.87;;;;;;;;;;5021092;28;20473;-66
2021/05/12 13:23:01;;;;;;;4.30;2.30;;;;;;;;;;5022402;28;20485;-65
2021/05/12 13:25:28;;;;;;;3.30;2.17;;;;;;;;;;5020980;28;20811;-65
2021/05/12 13:27:54;;;;;;;3.77;2.77;;;;;;;;;;5025247;28;20419;-66
2021/05/12 13:30:20;;;;;;;4.70;2.60;;;;;;;;;;5027133;28;20468;-65
2021/05/12 13:32:46;;;;;;;4.60;2.60;;;;;;;;;;5028797;28;20426;-66
2021/05/12 13:35:12;;;;;;;7.50;2.77;;;;;;;;;;5026561;28;20513;-65
2021/05/12 13:37:39;;;;;;;3.70;2.87;;;;;;;;;;5027443;28;20429;-66
2021/05/12 13:40:05;;;;;;;4.07;2.47;;;;;;;;;;5031075;28;20410;-66
2021/05/12 13:42:31;;;;;;;3.87;2.80;;;;;;;;;;5018718;28;20432;-65
2021/05/12 13:44:57;;;;;;;4.73;2.93;;;;;;;;;;5030520;28;20458;-65
2021/05/12 13:47:23;;;;;;;4.40;4.00;;;;;;;;;;5030645;28;20423;-65
2021/05/12 13:49:50;;;;;;;4.00;3.40;;;;;;;;;;5031094;28;20448;-66
2021/05/12 13:52:23;;;;;;;5.17;3.00;;;;;;;;;;5030661;28;20500;-65
2021/05/12 13:54:55;;;;;;;4.43;3.63;;;;;;;;;;5021225;28;20626;-66
2021/05/12 13:57:34;;;;;;;4.07;3.43;;;;;;;;;;5030531;28;20466;-65
2021/05/12 14:02:53;;;;;;;6.73;3.37;;;;;;;;;;5022010;28;20935;-66
2021/05/12 14:05:20;;;;;;;5.37;4.13;;;;;;;;;;5018502;28;20450;-66
2021/05/12 14:07:46;;;;;;;5.73;4.40;;;;;;;;;;5029507;28;20940;-66
2021/05/12 14:10:15;;;;;;;5.13;4.10;;;;;;;;;;5024950;28;20443;-66
2021/05/12 14:12:44;;;;;;;5.80;4.37;;;;;;;;;;5027635;28;20444;-66
2021/05/12 14:16:19;;;;;;;6.20;3.70;;;;;;;;;;5024077;28;20453;-66
2021/05/12 14:18:10;;;;;;;5.43;3.87;;;;;;;;;;5020577;28;20482;-66
2021/05/12 14:20:36;;;;;;;6.83;4.53;;;;;;;;;;5032425;28;20939;-66
2021/05/12 14:23:02;;;;;;;6.57;4.03;;;;;;;;;;5026563;28;20441;-67
2021/05/12 14:25:28;;;;;;;5.57;4.90;;;;;;;;;;5024524;28;20446;-66
2021/05/12 14:27:57;;;;;;;6.30;4.70;;;;;;;;;;5031727;28;20427;-66
2021/05/12 14:30:26;;;;;;;4.93;3.97;;;;;;;;;;5032054;28;20442;-66
2021/05/12 14:32:52;;;;;;;3.70;3.40;;;;;;;;;;5024404;28;20428;-66
2021/05/12 14:35:18;;;;;;;4.43;3.97;;;;;;;;;;5027411;28;20452;-66
2021/05/12 14:37:44;;;;;;;6.13;3.40;;;;;;;;;;5028821;28;20453;-65
2021/05/12 14:40:10;;;;;;;7.50;4.97;;;;;;;;;;5029971;28;20427;-66
2021/05/12 14:42:36;;;;;;;5.97;3.80;;;;;;;;;;5035776;28;20427;-67
2021/05/12 14:45:02;;;;;;;9.00;5.03;;;;;;;;;;5025606;28;20518;-66
2021/05/12 14:47:28;;;;;;;5.90;4.43;;;;;;;;;;5026822;28;20500;-66
2021/05/12 14:49:55;;;;;;;6.13;4.67;;;;;;;;;;5024737;28;20419;-65
2021/05/12 14:52:32;;;;;;;9.37;5.13;;;;;;;;;;5022666;28;20438;-67
2021/05/12 15:03:10;;;;;;;8.97;5.00;;;;;;;;;;5032434;28;20441;-65
2021/05/12 15:06:42;;;;;;;6.60;5.00;;;;;;;;;;5032813;28;20450;-64